Batson, Mississippi
Current Conditions -  °F | °C
As of 3:53 PM on Thursday 27 Nov 2014 (Local Time) from KHBG Reporting Station
Clear Clear  
Wind Chill: 55°   Ceiling: Unl
Heat Index: 55°   Visibility: 10mi
Dew Point: 30°   Wind: 8mph
Humidity: 38%   Direction: 350°N
Pressure: 30.42"   Gusts: NA
Location:  31.1996°N, 89.2694°W
Report Text: KHBG 272153Z AUTO 35007KT 10SM CLR 13/M01 A3042 RMK AO2 SLP302 T01281011
Loading
Personal Weather Stations






























Interactive Weather Map New forecast layout! Learn more

10-Day Weather Forecast

Advertisements
Track Severe Weather on mobile